Hovedside
METAR-TAF:

METAR-TAF

Lufthavner :

Sundsvall Timrå lufthavn

Sundsvall-Härnösand, Sverige

breddegrad: 62-32N, lengdegrad: 017-27E, høyde over havet: 4 m

Gjeldene værobservasjon

Denne rapporten ble laget for 17 minutter siden, klokken 01:20 UTC
Vind 7 kt fra Sør
Temperatur 6°C
Luftfuktighet 70%
Trykk 1006 hPa
Sikt 10 km eller mer

METAR: ESNN 230120Z AUTO 19007KT 9999 BKN029/// OVC120/// 06/01 Q1006

Tid: 02:37 (01:37 UTC)

Varsel

Denne rapporten ble laget for 8 timer og 7 minutter siden, klokken 17:30 UTC
Varsel gyldig fra 22. klokken 18 UTC til 22. klokken 22 UTC
Vind 10 kt fra Sør-sørøst
Sikt 10 km eller mer
ingen skyer under 1500 m og ingen bygeskyer

TAF: ESNN 221730Z 2218/2222 16010KT CAVOK

Værobservasjoner og værvarsel for over 4000 flyplasser (METAR- og TAF-rapporter).

Tilgjengelige stasjoner er representert av de røde og gule prikkene på kartet.

Hold musepekeren over prikken for å se navnet på stasjonen.

Klikk så for å se værobservasjoner og -varsler.

For å forandre kartet kan du klikke på den grønne knappen med svart kryss for å zoome inn, på den grønne knappen med strek for å zoome ut, eller på de grønne pilene for å se tilstøtende kart.


METAR-TAF: